Time;durP1;ratioP1;P1;durP2;ratioP2;P2;SDS_P1;SDS_P2;PMS_P1;PMS_P2;Temp;Humidity;BMP_temperature;BMP_pressure;BME280_temperature;BME280_humidity;BME280_pressure;Samples;Min_cycle;Max_cycle;Signal;HPM_P1;HPM_P2
2022/12/25 00:04:39;;;;;;;73.67;36.70;;;7.30;99.90;;;;;;10369893;28;20675;-80
2022/12/25 00:09:41;;;;;;;62.17;33.53;;;7.60;99.90;;;;;;10369906;28;20236;-80
2022/12/25 00:14:44;;;;;;;60.63;32.20;;;7.70;99.90;;;;;;10374636;28;20687;-80
2022/12/25 00:19:46;;;;;;;60.87;31.20;;;8.50;99.90;;;;;;10327465;28;20767;-80
2022/12/25 00:24:49;;;;;;;50.00;28.30;;;8.60;99.90;;;;;;10328642;28;20314;-80
2022/12/25 00:29:52;;;;;;;67.70;36.50;;;8.60;99.90;;;;;;10346711;28;20258;-81
2022/12/25 00:34:54;;;;;;;67.77;33.90;;;8.10;99.90;;;;;;10344683;28;20605;-80
2022/12/25 00:39:57;;;;;;;69.87;35.53;;;8.10;99.90;;;;;;10326289;28;20298;-79
2022/12/25 00:45:00;;;;;;;52.47;25.47;;;8.00;99.90;;;;;;10338268;28;20260;-79
2022/12/25 00:50:03;;;;;;;56.67;31.37;;;8.10;99.90;;;;;;10334117;28;20240;-79
2022/12/25 00:55:06;;;;;;;62.87;31.33;;;7.80;99.90;;;;;;10357073;28;20235;-79
2022/12/25 01:00:09;;;;;;;66.03;33.57;;;7.20;99.90;;;;;;10346145;28;20684;-79
2022/12/25 01:05:12;;;;;;;72.70;36.63;;;6.80;99.90;;;;;;10340543;28;20259;-79
2022/12/25 01:10:23;;;;;;;85.43;40.93;;;6.70;99.90;;;;;;10327280;28;20279;-79
2022/12/25 01:15:26;;;;;;;66.67;34.53;;;6.50;99.90;;;;;;10309794;28;20338;-79
2022/12/25 01:20:28;;;;;;;39.23;22.53;;;6.40;99.90;;;;;;10339178;28;20240;-79
2022/12/25 01:25:32;;;;;;;45.70;22.50;;;7.10;99.90;;;;;;10350414;28;20664;-79
2022/12/25 01:30:35;;;;;;;35.60;19.13;;;7.70;99.90;;;;;;10330433;28;20635;-79
2022/12/25 01:35:39;;;;;;;30.17;17.03;;;7.80;99.90;;;;;;10339551;28;20322;-79
2022/12/25 01:40:42;;;;;;;35.20;17.97;;;8.60;99.90;;;;;;10345870;28;20725;-79
2022/12/25 01:45:46;;;;;;;38.10;20.83;;;9.00;99.90;;;;;;10341543;28;20248;-79
2022/12/25 01:50:54;;;;;;;40.37;20.33;;;9.00;99.90;;;;;;10342531;28;20264;-80
2022/12/25 01:56:04;;;;;;;26.77;15.63;;;8.00;99.90;;;;;;10356411;28;20752;-79
2022/12/25 02:01:07;;;;;;;41.80;19.83;;;7.90;99.90;;;;;;10353604;28;20726;-79
2022/12/25 02:06:10;;;;;;;35.40;19.47;;;8.60;99.90;;;;;;10331390;28;20720;-79
2022/12/25 02:11:55;;;;;;;46.00;21.90;;;9.20;99.90;;;;;;10351916;28;20286;-79
2022/12/25 02:16:40;;;;;;;48.43;21.87;;;9.30;99.90;;;;;;10368758;28;20291;-80
2022/12/25 02:22:15;;;;;;;41.97;21.30;;;8.70;99.90;;;;;;10377184;28;20244;-80
2022/12/25 02:28:06;;;;;;;46.37;20.47;;;8.30;99.90;;;;;;10390565;28;20242;-80
2022/12/25 03:11:31;;;;;;;44.40;14.53;;;9.20;99.90;;;;;;10387546;28;20226;-80
2022/12/25 03:16:49;;;;;;;30.67;15.37;;;9.30;99.90;;;;;;10345657;28;20312;-80
2022/12/25 03:27:15;;;;;;;28.00;13.80;;;8.30;99.90;;;;;;10345817;28;20291;-79
2022/12/25 03:32:58;;;;;;;26.33;14.20;;;7.80;99.90;;;;;;10327048;28;20289;-79
2022/12/25 04:38:01;;;;;;;26.17;14.17;;;6.30;99.90;;;;;;10345042;28;20282;-80
2022/12/25 04:43:03;;;;;;;21.47;13.43;;;6.40;99.90;;;;;;10325144;28;20794;-80
2022/12/25 04:48:06;;;;;;;25.77;15.43;;;6.40;99.90;;;;;;10329183;28;20203;-80
2022/12/25 04:53:09;;;;;;;33.73;19.60;;;6.50;99.90;;;;;;10345481;28;20612;-80
2022/12/25 04:58:11;;;;;;;40.67;19.17;;;6.40;99.90;;;;;;10344298;28;20227;-80
2022/12/25 05:03:14;;;;;;;26.03;17.60;;;6.40;99.90;;;;;;10322168;28;20286;-80
2022/12/25 05:08:16;;;;;;;30.77;18.67;;;6.40;99.90;;;;;;10332821;28;20233;-80
2022/12/25 05:13:19;;;;;;;35.53;18.83;;;6.40;99.90;;;;;;10349054;28;20234;-80
2022/12/25 05:18:22;;;;;;;27.73;15.97;;;6.40;99.90;;;;;;10345300;28;20267;-80
2022/12/25 05:23:24;;;;;;;32.40;16.83;;;6.30;99.90;;;;;;10347300;28;20305;-80
2022/12/25 05:28:27;;;;;;;25.57;15.43;;;6.30;99.90;;;;;;10359277;28;20294;-80
2022/12/25 05:33:29;;;;;;;33.57;18.27;;;6.50;99.90;;;;;;10337433;28;20238;-80
2022/12/25 05:38:33;;;;;;;20.50;12.07;;;6.60;99.90;;;;;;10354276;28;20312;-80
2022/12/25 05:43:35;;;;;;;27.50;13.47;;;8.20;99.90;;;;;;10337320;28;20624;-80
2022/12/25 05:48:38;;;;;;;22.63;12.13;;;8.80;99.90;;;;;;10337042;28;20371;-79
2022/12/25 05:53:42;;;;;;;19.90;11.33;;;9.80;99.90;;;;;;10329074;28;20305;-80
2022/12/25 05:58:44;;;;;;;18.40;11.93;;;10.00;99.90;;;;;;10334548;28;20240;-79
2022/12/25 06:03:47;;;;;;;23.47;13.33;;;10.80;99.90;;;;;;10358599;28;20666;-79
2022/12/25 06:08:53;;;;;;;35.10;18.77;;;11.00;99.90;;;;;;10353608;28;20667;-80
2022/12/25 06:13:56;;;;;;;28.93;16.57;;;11.00;99.90;;;;;;10357259;28;20732;-80
2022/12/25 06:18:58;;;;;;;20.27;11.77;;;11.10;99.90;;;;;;10354232;28;20229;-79
2022/12/25 06:24:01;;;;;;;21.73;12.80;;;10.60;99.90;;;;;;10344776;28;20311;-79
2022/12/25 06:29:05;;;;;;;26.93;16.33;;;10.70;99.90;;;;;;10349487;28;20224;-80
2022/12/25 06:34:09;;;;;;;25.63;14.63;;;11.20;99.90;;;;;;10341029;28;20684;-80
2022/12/25 06:39:11;;;;;;;23.13;12.07;;;11.00;99.90;;;;;;10344701;28;20740;-79
2022/12/25 06:44:14;;;;;;;30.33;15.57;;;11.50;99.90;;;;;;10325911;28;20259;-80
2022/12/25 06:49:19;;;;;;;22.33;13.60;;;11.00;99.90;;;;;;10344376;28;21038;-80
2022/12/25 06:54:21;;;;;;;24.97;15.27;;;10.90;99.90;;;;;;10323893;28;20255;-80
2022/12/25 06:59:24;;;;;;;19.80;12.40;;;10.50;99.90;;;;;;10343708;28;20294;-79
2022/12/25 07:04:27;;;;;;;13.73;10.13;;;9.90;99.90;;;;;;10323884;28;20241;-79
2022/12/25 07:09:29;;;;;;;19.47;11.33;;;10.00;99.90;;;;;;10347537;28;20234;-80
2022/12/25 07:14:32;;;;;;;20.87;12.23;;;9.90;99.90;;;;;;10323595;28;20266;-80
2022/12/25 07:19:34;;;;;;;22.00;12.37;;;9.40;99.90;;;;;;10341804;28;20701;-79
2022/12/25 07:24:46;;;;;;;22.20;12.30;;;8.90;99.90;;;;;;10346573;28;20271;-80
2022/12/25 07:29:48;;;;;;;20.80;11.97;;;8.50;99.90;;;;;;10346214;28;20297;-80
2022/12/25 07:34:51;;;;;;;18.87;11.27;;;8.10;99.90;;;;;;10324684;28;20653;-80
2022/12/25 07:39:54;;;;;;;19.17;11.97;;;8.10;99.90;;;;;;10317446;28;20238;-80
2022/12/25 07:44:56;;;;;;;15.20;10.50;;;7.90;99.90;;;;;;10342160;28;20271;-80
2022/12/25 07:49:59;;;;;;;21.37;13.87;;;8.10;99.90;;;;;;10332479;28;20236;-80
2022/12/25 07:55:02;;;;;;;17.57;9.90;;;8.30;99.90;;;;;;10344471;28;20268;-79
2022/12/25 08:00:10;;;;;;;16.70;9.77;;;8.10;99.90;;;;;;10346537;28;20245;-79
2022/12/25 08:05:13;;;;;;;15.93;9.70;;;7.90;99.90;;;;;;10344256;28;20305;-79
2022/12/25 08:10:16;;;;;;;17.40;10.70;;;8.90;99.90;;;;;;10341227;28;20676;-80
2022/12/25 08:15:19;;;;;;;12.40;8.67;;;9.30;99.90;;;;;;10340268;28;20694;-79
2022/12/25 08:20:21;;;;;;;15.57;11.47;;;10.10;99.90;;;;;;10320679;28;20236;-79
2022/12/25 08:25:24;;;;;;;12.40;8.57;;;10.60;99.90;;;;;;10322008;28;20654;-79
2022/12/25 08:30:27;;;;;;;14.53;9.60;;;10.70;99.90;;;;;;10340091;28;20257;-80
2022/12/25 08:35:32;;;;;;;16.87;10.37;;;10.90;99.90;;;;;;10347695;28;20228;-80
2022/12/25 08:40:35;;;;;;;12.37;8.43;;;11.50;99.90;;;;;;10344563;28;20281;-80
2022/12/25 08:45:37;;;;;;;14.67;9.63;;;11.60;99.90;;;;;;10335033;28;20253;-80
2022/12/25 08:50:45;;;;;;;11.33;8.07;;;11.50;99.90;;;;;;10336272;28;20756;-80
2022/12/25 08:55:48;;;;;;;15.03;10.83;;;11.70;99.90;;;;;;10325132;28;20275;-80
2022/12/25 09:00:51;;;;;;;16.10;11.53;;;10.70;99.90;;;;;;10340930;28;21059;-80
2022/12/25 09:05:54;;;;;;;11.83;8.80;;;10.70;99.90;;;;;;10343464;28;20244;-80
2022/12/25 09:11:01;;;;;;;9.87;7.47;;;11.00;99.90;;;;;;10348785;28;20225;-79
2022/12/25 09:16:05;;;;;;;16.07;10.53;;;11.30;99.90;;;;;;10338059;28;20251;-81
2022/12/25 09:21:10;;;;;;;14.90;9.67;;;11.30;99.90;;;;;;10340132;28;20729;-80
2022/12/25 09:26:16;;;;;;;13.57;10.27;;;11.00;99.90;;;;;;10337060;28;20706;-80
2022/12/25 09:31:20;;;;;;;16.33;9.33;;;10.80;99.90;;;;;;10345151;28;20236;-80
2022/12/25 09:36:23;;;;;;;15.77;10.07;;;10.80;99.90;;;;;;10348779;28;20310;-80
2022/12/25 09:41:46;;;;;;;18.63;11.17;;;11.20;99.90;;;;;;10325652;28;20228;-80
2022/12/25 09:47:19;;;;;;;20.37;11.40;;;11.20;99.90;;;;;;10325829;28;20255;-80
2022/12/25 09:52:28;;;;;;;18.93;13.03;;;10.50;99.90;;;;;;10340869;28;20240;-82
2022/12/25 09:57:32;;;;;;;24.00;14.97;;;10.20;99.90;;;;;;10348394;28;20350;-80
2022/12/25 10:03:15;;;;;;;16.07;10.90;;;10.10;99.90;;;;;;10340718;28;20267;-80
2022/12/25 10:08:48;;;;;;;25.63;14.47;;;10.00;99.90;;;;;;10307502;28;20231;-81
2022/12/25 10:13:57;;;;;;;24.97;14.77;;;9.50;99.90;;;;;;10335377;28;20286;-82
2022/12/25 10:19:09;;;;;;;21.33;14.07;;;8.90;99.90;;;;;;10348377;28;20232;-81
2022/12/25 10:24:34;;;;;;;20.30;11.40;;;8.70;99.90;;;;;;10329645;28;20259;-82
2022/12/25 10:29:38;;;;;;;21.60;12.57;;;8.90;99.90;;;;;;10354664;28;20228;-81
2022/12/25 10:34:42;;;;;;;23.57;13.43;;;8.70;99.90;;;;;;10347095;28;20292;-81
2022/12/25 10:39:45;;;;;;;14.40;11.00;;;8.50;99.90;;;;;;10352799;28;20294;-82
2022/12/25 10:45:00;;;;;;;18.70;11.87;;;8.40;99.90;;;;;;10349678;28;20787;-82
2022/12/25 10:50:18;;;;;;;25.83;13.77;;;8.40;99.90;;;;;;10348053;28;20299;-81
2022/12/25 10:55:21;;;;;;;21.07;13.10;;;8.40;99.90;;;;;;10347373;28;20283;-81
2022/12/25 11:00:31;;;;;;;16.67;10.30;;;8.30;99.90;;;;;;10349452;28;20286;-81
2022/12/25 11:05:35;;;;;;;18.10;10.13;;;8.40;99.90;;;;;;10346589;28;20248;-81
2022/12/25 11:10:42;;;;;;;16.63;10.77;;;8.50;99.90;;;;;;10331773;28;20824;-81
2022/12/25 11:15:49;;;;;;;20.23;11.63;;;8.70;99.90;;;;;;10334616;28;20342;-80
2022/12/25 11:20:55;;;;;;;17.57;9.77;;;9.20;99.90;;;;;;10340906;28;20319;-81
2022/12/25 11:26:03;;;;;;;15.90;8.47;;;8.90;99.90;;;;;;10001709;28;10000616;-81
2022/12/25 11:31:11;;;;;;;18.33;12.37;;;8.70;99.90;;;;;;10343177;28;20228;-81
2022/12/25 11:36:24;;;;;;;16.63;11.23;;;8.60;99.90;;;;;;10367298;28;20313;-82
2022/12/25 11:41:31;;;;;;;18.97;10.50;;;8.60;99.90;;;;;;10326962;28;20228;-82
2022/12/25 11:46:49;;;;;;;19.30;9.60;;;8.50;99.90;;;;;;10327133;28;20328;-82
2022/12/25 11:51:55;;;;;;;23.27;11.83;;;8.30;99.90;;;;;;10326367;28;20236;-82
2022/12/25 11:57:02;;;;;;;24.20;12.53;;;8.00;99.90;;;;;;10322326;28;20247;-81
2022/12/25 12:02:19;;;;;;;21.07;11.23;;;7.80;99.90;;;;;;10326192;28;20307;-82
2022/12/25 12:07:26;;;;;;;20.87;11.90;;;7.70;99.90;;;;;;10328780;28;20256;-81
2022/12/25 12:12:43;;;;;;;15.83;10.83;;;7.60;99.90;;;;;;10355756;28;20311;-82
2022/12/25 12:17:50;;;;;;;19.40;10.50;;;7.70;99.90;;;;;;10364657;28;20282;-82
2022/12/25 12:22:55;;;;;;;23.17;10.27;;;7.80;99.90;;;;;;10351587;28;20315;-82
2022/12/25 12:28:00;;;;;;;13.63;8.97;;;8.00;99.90;;;;;;10359342;28;20259;-81
2022/12/25 12:33:17;;;;;;;15.20;10.20;;;8.00;99.90;;;;;;10353895;28;20231;-80
2022/12/25 12:38:22;;;;;;;31.20;16.97;;;8.30;99.90;;;;;;10342440;28;20596;-80
2022/12/25 12:43:40;;;;;;;32.20;16.73;;;7.90;99.90;;;;;;10349536;28;20692;-80
2022/12/25 12:48:46;;;;;;;30.50;16.23;;;8.20;99.90;;;;;;10354092;28;20244;-80
2022/12/25 12:53:49;;;;;;;31.53;15.03;;;7.90;99.90;;;;;;10327007;28;20233;-80
2022/12/25 12:58:51;;;;;;;39.40;15.80;;;8.00;99.90;;;;;;10325968;28;20259;-80
2022/12/25 13:03:57;;;;;;;29.80;14.30;;;7.80;99.90;;;;;;10308382;28;20684;-82
2022/12/25 13:09:08;;;;;;;26.97;13.03;;;7.60;99.90;;;;;;10315029;28;20243;-81
2022/12/25 13:14:15;;;;;;;30.27;15.00;;;7.50;99.90;;;;;;10343199;28;20288;-80
2022/12/25 13:19:25;;;;;;;32.83;15.30;;;7.50;99.90;;;;;;10365234;28;20229;-80
2022/12/25 13:24:30;;;;;;;35.67;16.67;;;7.30;99.90;;;;;;10335854;28;20318;-79
2022/12/25 13:29:35;;;;;;;27.77;14.03;;;7.30;99.90;;;;;;10307737;28;20269;-80
2022/12/25 13:34:41;;;;;;;35.90;16.60;;;7.40;99.90;;;;;;10325879;28;20857;-77
2022/12/25 13:40:07;;;;;;;39.77;19.63;;;8.10;99.90;;;;;;10341123;28;20254;-77
2022/12/25 13:45:24;;;;;;;37.47;18.40;;;7.60;99.90;;;;;;10330441;28;20264;-78
2022/12/25 13:50:35;;;;;;;50.40;24.03;;;7.00;99.90;;;;;;10345680;28;20570;-78
2022/12/25 13:55:38;;;;;;;67.70;26.70;;;6.40;99.90;;;;;;10353344;28;20236;-78
2022/12/25 14:00:49;;;;;;;68.20;30.27;;;6.10;99.90;;;;;;10342100;28;20684;-78
2022/12/25 14:06:01;;;;;;;69.43;26.57;;;6.10;99.90;;;;;;10347655;28;20256;-78
2022/12/25 14:11:06;;;;;;;53.30;22.63;;;6.00;99.90;;;;;;10351750;28;20643;-78
2022/12/25 14:16:10;;;;;;;60.80;24.83;;;5.80;99.90;;;;;;10369710;28;20677;-78
2022/12/25 14:21:25;;;;;;;61.03;24.67;;;5.70;99.90;;;;;;10326539;28;20229;-79
2022/12/25 14:26:31;;;;;;;57.37;23.83;;;5.70;99.90;;;;;;10323273;28;20334;-79
2022/12/25 14:31:37;;;;;;;67.27;24.20;;;5.60;99.90;;;;;;10331156;28;20221;-79
2022/12/25 14:36:40;;;;;;;65.17;25.40;;;5.60;99.90;;;;;;10332913;28;20743;-78
2022/12/25 14:41:52;;;;;;;63.33;27.50;;;5.60;99.90;;;;;;10337981;28;20208;-79
2022/12/25 14:47:09;;;;;;;57.03;24.80;;;5.50;99.90;;;;;;10332577;28;20898;-78
2022/12/25 14:52:37;;;;;;;54.55;28.40;;;5.40;99.90;;;;;;10334882;28;20463;-80
2022/12/25 14:57:45;;;;;;;54.53;23.07;;;5.20;99.90;;;;;;10346910;28;20950;-80
2022/12/25 15:02:52;;;;;;;59.27;24.03;;;5.10;99.90;;;;;;10353713;28;20487;-79
2022/12/25 15:07:59;;;;;;;274.33;114.60;;;5.10;99.90;;;;;;10342733;28;20537;-79
2022/12/25 15:13:02;;;;;;;91.90;35.80;;;5.10;99.90;;;;;;10320267;28;20293;-80
2022/12/25 15:18:05;;;;;;;72.27;32.57;;;5.10;99.90;;;;;;10352123;28;20325;-79
2022/12/25 15:23:14;;;;;;;80.27;35.13;;;5.10;99.90;;;;;;10340188;28;20825;-79
2022/12/25 15:28:21;;;;;;;77.00;32.20;;;5.10;99.90;;;;;;10328080;28;20529;-79
2022/12/25 15:33:24;;;;;;;116.88;52.35;;;5.10;99.90;;;;;;10325205;28;20488;-79
2022/12/25 15:38:27;;;;;;;135.82;54.70;;;5.10;99.90;;;;;;10327108;28;20535;-77
2022/12/25 15:43:30;;;;;;;113.13;41.27;;;5.10;99.90;;;;;;10306632;28;20228;-78
2022/12/25 15:48:47;;;;;;;114.90;41.80;;;5.20;99.90;;;;;;10312854;28;20498;-77
2022/12/25 15:53:50;;;;;;;88.23;34.63;;;5.20;99.90;;;;;;10323443;28;20263;-78
2022/12/25 15:58:52;;;;;;;75.83;31.20;;;5.20;99.90;;;;;;10324718;28;20291;-78
2022/12/25 16:03:55;;;;;;;71.10;28.50;;;5.20;99.90;;;;;;10310883;28;20667;-78
2022/12/25 16:08:58;;;;;;;62.17;28.17;;;5.20;99.90;;;;;;10310325;28;20256;-78
2022/12/25 16:14:00;;;;;;;58.50;29.60;;;5.20;99.90;;;;;;10330545;28;20229;-78
2022/12/25 16:19:04;;;;;;;83.80;41.20;;;5.20;99.90;;;;;;10368818;28;20271;-77
2022/12/25 16:24:07;;;;;;;114.55;52.50;;;5.20;99.90;;;;;;10368241;28;20470;-77
2022/12/25 16:29:10;;;;;;;100.47;42.20;;;5.20;99.90;;;;;;10335960;28;20271;-77
2022/12/25 16:34:12;;;;;;;114.27;45.77;;;5.20;99.90;;;;;;10351524;28;20242;-77
2022/12/25 16:39:15;;;;;;;122.13;53.20;;;5.20;99.90;;;;;;10362475;28;20318;-78
2022/12/25 16:44:17;;;;;;;86.10;41.30;;;5.20;99.90;;;;;;10367016;28;20293;-79
2022/12/25 16:49:20;;;;;;;73.20;30.17;;;5.20;99.90;;;;;;10350425;28;20690;-79
2022/12/25 16:54:23;;;;;;;67.40;34.57;;;5.30;99.90;;;;;;10368005;28;20232;-79
2022/12/25 16:59:28;;;;;;;75.77;38.57;;;5.30;99.90;;;;;;10366547;28;20671;-79
2022/12/25 17:04:30;;;;;;;66.97;33.87;;;5.30;99.90;;;;;;10349226;28;20289;-79
2022/12/25 17:09:33;;;;;;;70.63;34.03;;;5.30;99.90;;;;;;10366087;28;20259;-80
2022/12/25 17:14:45;;;;;;;72.77;35.07;;;5.30;99.90;;;;;;10316971;28;20281;-79
2022/12/25 17:19:47;;;;;;;90.07;41.47;;;5.30;99.90;;;;;;10284743;28;20312;-79
2022/12/25 17:24:50;;;;;;;141.87;64.30;;;5.40;99.90;;;;;;10288741;28;20233;-79
2022/12/25 17:29:52;;;;;;;142.40;64.20;;;5.40;99.90;;;;;;10324248;28;20279;-79
2022/12/25 17:34:55;;;;;;;144.23;65.30;;;5.40;99.90;;;;;;10323240;28;20324;-79
2022/12/25 17:39:58;;;;;;;70.07;35.67;;;5.50;99.90;;;;;;10326000;28;20259;-79
2022/12/25 17:45:01;;;;;;;68.73;34.73;;;5.40;99.90;;;;;;10326373;28;20268;-78
2022/12/25 17:50:04;;;;;;;88.73;39.93;;;5.50;99.90;;;;;;10318930;28;20236;-79
2022/12/25 17:55:07;;;;;;;79.43;36.27;;;5.40;99.90;;;;;;10320432;28;20279;-77
2022/12/25 18:00:10;;;;;;;101.17;43.60;;;5.40;99.90;;;;;;10323702;28;20225;-77
2022/12/25 18:05:13;;;;;;;104.57;46.50;;;5.40;99.90;;;;;;10324011;28;20287;-78
2022/12/25 18:10:15;;;;;;;115.90;44.37;;;5.40;99.90;;;;;;10324636;28;20255;-78
2022/12/25 18:15:18;;;;;;;103.40;44.03;;;;;;;;;;10332631;28;20293;-78
2022/12/25 18:20:21;;;;;;;97.50;40.27;;;5.30;99.90;;;;;;10365258;28;20235;-77
2022/12/25 18:25:23;;;;;;;101.57;43.70;;;5.30;99.90;;;;;;10346852;28;20247;-78
2022/12/25 18:30:26;;;;;;;101.50;44.67;;;5.30;99.90;;;;;;10368909;28;20746;-78
2022/12/25 18:35:29;;;;;;;94.00;44.77;;;5.20;99.90;;;;;;10372745;28;20227;-78
2022/12/25 18:40:32;;;;;;;95.10;40.37;;;5.20;99.90;;;;;;10384225;28;20295;-77
2022/12/25 18:45:36;;;;;;;93.63;38.67;;;5.20;99.90;;;;;;10382737;28;20305;-77
2022/12/25 18:50:40;;;;;;;120.50;50.17;;;5.10;99.90;;;;;;10355116;28;20293;-77
2022/12/25 18:55:42;;;;;;;104.10;49.90;;;5.10;99.90;;;;;;10355073;28;20282;-78
2022/12/25 19:00:45;;;;;;;109.70;53.00;;;5.10;99.90;;;;;;10348848;28;20242;-77
2022/12/25 19:05:48;;;;;;;119.43;56.97;;;5.10;99.90;;;;;;10355419;28;20255;-78
2022/12/25 19:10:51;;;;;;;107.40;45.37;;;5.10;99.90;;;;;;10353645;28;20290;-77
2022/12/25 19:15:57;;;;;;;112.77;54.03;;;5.10;99.90;;;;;;10354269;28;20268;-77
2022/12/25 19:21:02;;;;;;;163.93;74.47;;;5.10;99.90;;;;;;10370976;28;20355;-77
2022/12/25 19:26:07;;;;;;;136.63;60.87;;;5.20;99.90;;;;;;10341706;28;20252;-77
2022/12/25 19:31:10;;;;;;;108.47;53.83;;;5.20;99.90;;;;;;10353304;28;20208;-77
2022/12/25 19:36:15;;;;;;;92.67;40.07;;;5.20;99.90;;;;;;10349306;28;20617;-76
2022/12/25 19:41:18;;;;;;;90.23;42.40;;;5.20;99.90;;;;;;10350212;28;20240;-77
2022/12/25 19:46:24;;;;;;;105.00;48.60;;;5.30;99.90;;;;;;10341098;28;20256;-76
2022/12/25 19:51:29;;;;;;;133.23;61.27;;;5.20;99.90;;;;;;10371564;28;20646;-76
2022/12/25 19:56:33;;;;;;;118.47;57.43;;;5.20;99.90;;;;;;10366844;28;20285;-77
2022/12/25 20:01:37;;;;;;;94.67;47.00;;;5.20;99.90;;;;;;10348311;28;20259;-76
2022/12/25 20:06:41;;;;;;;84.83;42.13;;;5.30;99.90;;;;;;10350011;28;20313;-76
2022/12/25 20:11:44;;;;;;;72.37;40.33;;;5.20;99.90;;;;;;10369232;28;20231;-77
2022/12/25 20:16:47;;;;;;;82.07;41.20;;;5.30;99.90;;;;;;10342390;28;20260;-77
2022/12/25 20:21:49;;;;;;;68.40;39.27;;;5.30;99.90;;;;;;10322124;28;20267;-76
2022/12/25 20:26:52;;;;;;;82.10;42.57;;;5.20;99.90;;;;;;10328159;28;20252;-76
2022/12/25 20:32:00;;;;;;;69.20;33.73;;;5.20;99.90;;;;;;10322734;28;20699;-77
2022/12/25 20:37:03;;;;;;;76.43;31.33;;;5.30;99.90;;;;;;10308776;28;20232;-75
2022/12/25 20:42:06;;;;;;;66.87;35.77;;;5.30;99.90;;;;;;10327611;28;20337;-76
2022/12/25 20:47:09;;;;;;;78.00;38.10;;;5.30;99.90;;;;;;10325282;28;20267;-76
2022/12/25 20:52:11;;;;;;;67.77;33.80;;;5.30;99.90;;;;;;9964353;28;10000606;-77
2022/12/25 20:57:14;;;;;;;68.90;36.67;;;5.40;99.90;;;;;;10323057;28;20326;-77
2022/12/25 21:02:17;;;;;;;70.17;36.80;;;5.40;99.90;;;;;;10306187;28;20251;-77
2022/12/25 21:07:37;;;;;;;67.30;37.00;;;5.40;99.90;;;;;;10322277;28;20256;-77
2022/12/25 21:12:40;;;;;;;76.10;39.00;;;5.40;99.90;;;;;;10324238;28;20286;-77
2022/12/25 21:17:43;;;;;;;69.40;36.27;;;5.40;99.90;;;;;;10323538;28;20635;-78
2022/12/25 21:22:45;;;;;;;72.03;37.43;;;5.40;99.90;;;;;;10307310;28;20287;-78
2022/12/25 21:27:48;;;;;;;62.30;33.17;;;5.40;99.90;;;;;;9978366;28;9999658;-78
2022/12/25 21:38:12;;;;;;;52.97;30.30;;;5.40;99.90;;;;;;10317623;28;20244;-78
2022/12/25 21:43:15;;;;;;;55.60;31.53;;;5.40;99.90;;;;;;10317463;28;20615;-78
2022/12/25 21:48:17;;;;;;;58.33;31.97;;;5.50;99.90;;;;;;10323289;28;20256;-78
2022/12/25 21:53:20;;;;;;;60.37;32.03;;;5.50;99.90;;;;;;10317896;28;20774;-79
2022/12/25 21:58:23;;;;;;;62.23;34.87;;;5.50;99.90;;;;;;10305461;28;20287;-79
2022/12/25 22:03:25;;;;;;;57.07;31.97;;;5.40;99.90;;;;;;10320802;28;20229;-79
2022/12/25 22:08:31;;;;;;;68.93;30.60;;;5.40;99.90;;;;;;10329025;28;20260;-79
2022/12/25 22:24:15;;;;;;;62.83;32.40;;;5.80;99.90;;;;;;10288505;28;20321;-79
2022/12/25 22:29:18;;;;;;;66.23;33.47;;;5.70;99.90;;;;;;10322618;28;20260;-78
2022/12/25 22:34:21;;;;;;;55.80;29.80;;;5.70;99.90;;;;;;10326569;28;20232;-79
2022/12/25 22:39:24;;;;;;;55.10;30.87;;;5.60;99.90;;;;;;10308968;28;20236;-79
2022/12/25 22:44:30;;;;;;;57.37;29.53;;;5.60;99.90;;;;;;10308717;28;20703;-80
2022/12/25 22:49:34;;;;;;;57.03;34.50;;;5.60;99.90;;;;;;10320863;28;20319;-79
2022/12/25 22:54:37;;;;;;;59.80;33.10;;;5.60;99.90;;;;;;10321399;28;20713;-79
2022/12/25 22:59:39;;;;;;;47.70;27.17;;;5.50;99.90;;;;;;10323774;28;20241;-79
2022/12/25 23:04:42;;;;;;;42.57;24.43;;;5.60;99.90;;;;;;10326999;28;20689;-79
2022/12/25 23:09:45;;;;;;;52.93;29.13;;;5.80;99.90;;;;;;10309762;28;20260;-79
2022/12/25 23:14:47;;;;;;;56.37;30.93;;;5.70;99.90;;;;;;10320355;28;20264;-79
2022/12/25 23:30:35;;;;;;;54.93;31.93;;;5.60;99.90;;;;;;10326914;28;20663;-80
2022/12/25 23:35:37;;;;;;;58.43;32.67;;;5.70;99.90;;;;;;10329010;28;20221;-79
2022/12/25 23:40:40;;;;;;;55.90;30.90;;;5.60;99.90;;;;;;10328519;28;20236;-80
2022/12/25 23:45:42;;;;;;;49.27;25.03;;;5.70;99.90;;;;;;10326572;28;20295;-80
2022/12/25 23:50:45;;;;;;;48.78;25.70;;;5.70;99.90;;;;;;10316201;28;20491;-79
2022/12/25 23:55:48;;;;;;;34.60;19.67;;;6.30;99.90;;;;;;10329645;28;20264;-80
